sensor_id;sensor_type;location;lat;lon;timestamp;temperature;humidity
13796;SHT30;40911;51.552;9.874;2022-10-16T00:01:26;15.40;95.59
13796;SHT30;40911;51.552;9.874;2022-10-16T00:04:08;15.36;95.44
13796;SHT30;40911;51.552;9.874;2022-10-16T00:06:47;15.31;95.74
13796;SHT30;40911;51.552;9.874;2022-10-16T00:09:26;15.29;95.80
13796;SHT30;40911;51.552;9.874;2022-10-16T00:11:47;15.23;95.92
13796;SHT30;40911;51.552;9.874;2022-10-16T00:14:11;15.25;95.94
13796;SHT30;40911;51.552;9.874;2022-10-16T00:16:35;15.29;95.83
13796;SHT30;40911;51.552;9.874;2022-10-16T00:18:57;15.33;95.65
13796;SHT30;40911;51.552;9.874;2022-10-16T00:21:22;15.29;95.55
13796;SHT30;40911;51.552;9.874;2022-10-16T00:23:44;15.33;95.56
13796;SHT30;40911;51.552;9.874;2022-10-16T00:26:07;15.29;95.56
13796;SHT30;40911;51.552;9.874;2022-10-16T00:28:30;15.28;95.65
13796;SHT30;40911;51.552;9.874;2022-10-16T00:30:52;15.22;95.74
13796;SHT30;40911;51.552;9.874;2022-10-16T00:33:16;15.26;95.62
13796;SHT30;40911;51.552;9.874;2022-10-16T00:35:38;15.33;95.19
13796;SHT30;40911;51.552;9.874;2022-10-16T00:38:00;15.33;95.19
13796;SHT30;40911;51.552;9.874;2022-10-16T00:40:21;15.36;95.23
13796;SHT30;40911;51.552;9.874;2022-10-16T00:42:43;15.35;95.28
13796;SHT30;40911;51.552;9.874;2022-10-16T00:45:06;15.31;95.51
13796;SHT30;40911;51.552;9.874;2022-10-16T00:47:31;15.33;95.57
13796;SHT30;40911;51.552;9.874;2022-10-16T00:50:00;15.33;95.58
13796;SHT30;40911;51.552;9.874;2022-10-16T00:52:23;15.31;95.76
13796;SHT30;40911;51.552;9.874;2022-10-16T00:54:46;15.31;95.99
13796;SHT30;40911;51.552;9.874;2022-10-16T00:57:08;15.32;95.71
13796;SHT30;40911;51.552;9.874;2022-10-16T00:59:33;15.36;95.60
13796;SHT30;40911;51.552;9.874;2022-10-16T01:01:56;15.32;95.69
13796;SHT30;40911;51.552;9.874;2022-10-16T01:04:18;15.26;95.73
13796;SHT30;40911;51.552;9.874;2022-10-16T01:07:12;15.23;95.77
13796;SHT30;40911;51.552;9.874;2022-10-16T01:10:15;15.25;95.77
13796;SHT30;40911;51.552;9.874;2022-10-16T01:13:11;15.26;95.55
13796;SHT30;40911;51.552;9.874;2022-10-16T01:16:15;15.28;95.76
13796;SHT30;40911;51.552;9.874;2022-10-16T01:19:04;15.28;95.66
13796;SHT30;40911;51.552;9.874;2022-10-16T01:22:18;15.29;95.76
13796;SHT30;40911;51.552;9.874;2022-10-16T01:25:08;15.23;95.89
13796;SHT30;40911;51.552;9.874;2022-10-16T01:28:17;15.22;95.92
13796;SHT30;40911;51.552;9.874;2022-10-16T01:34:29;15.19;95.88
13796;SHT30;40911;51.552;9.874;2022-10-16T01:37:09;15.13;95.99
13796;SHT30;40911;51.552;9.874;2022-10-16T01:39:38;15.12;96.10
13796;SHT30;40911;51.552;9.874;2022-10-16T01:42:11;15.11;96.04
13796;SHT30;40911;51.552;9.874;2022-10-16T01:44:37;15.13;95.91
13796;SHT30;40911;51.552;9.874;2022-10-16T01:47:00;15.09;95.93
13796;SHT30;40911;51.552;9.874;2022-10-16T01:49:26;15.12;95.83
13796;SHT30;40911;51.552;9.874;2022-10-16T01:51:52;15.09;95.75
13796;SHT30;40911;51.552;9.874;2022-10-16T01:54:16;15.09;95.61
13796;SHT30;40911;51.552;9.874;2022-10-16T01:56:39;15.04;95.87
13796;SHT30;40911;51.552;9.874;2022-10-16T01:59:04;15.01;95.83
13796;SHT30;40911;51.552;9.874;2022-10-16T02:01:39;14.96;96.01
13796;SHT30;40911;51.552;9.874;2022-10-16T02:04:07;14.91;95.97
13796;SHT30;40911;51.552;9.874;2022-10-16T02:06:38;14.83;96.12
13796;SHT30;40911;51.552;9.874;2022-10-16T02:09:03;14.81;96.23
13796;SHT30;40911;51.552;9.874;2022-10-16T02:11:44;14.77;96.32
13796;SHT30;40911;51.552;9.874;2022-10-16T02:14:26;14.83;96.07
13796;SHT30;40911;51.552;9.874;2022-10-16T02:17:25;14.78;96.22
13796;SHT30;40911;51.552;9.874;2022-10-16T02:19:49;14.75;96.14
13796;SHT30;40911;51.552;9.874;2022-10-16T02:22:26;14.75;96.12
13796;SHT30;40911;51.552;9.874;2022-10-16T02:24:54;14.77;95.89
13796;SHT30;40911;51.552;9.874;2022-10-16T02:27:29;14.75;95.83
13796;SHT30;40911;51.552;9.874;2022-10-16T02:29:56;14.71;95.97
13796;SHT30;40911;51.552;9.874;2022-10-16T02:32:23;14.70;95.96
13796;SHT30;40911;51.552;9.874;2022-10-16T02:34:46;14.67;96.00
13796;SHT30;40911;51.552;9.874;2022-10-16T02:37:09;14.68;95.85
13796;SHT30;40911;51.552;9.874;2022-10-16T02:39:32;14.67;95.91
13796;SHT30;40911;51.552;9.874;2022-10-16T02:41:54;14.64;95.90
13796;SHT30;40911;51.552;9.874;2022-10-16T02:44:16;14.68;95.74
13796;SHT30;40911;51.552;9.874;2022-10-16T02:46:37;14.73;95.68
13796;SHT30;40911;51.552;9.874;2022-10-16T02:49:01;14.67;95.78
13796;SHT30;40911;51.552;9.874;2022-10-16T02:51:22;14.67;95.87
13796;SHT30;40911;51.552;9.874;2022-10-16T02:53:44;14.67;95.72
13796;SHT30;40911;51.552;9.874;2022-10-16T02:56:07;14.68;95.65
13796;SHT30;40911;51.552;9.874;2022-10-16T02:58:28;14.67;95.89
13796;SHT30;40911;51.552;9.874;2022-10-16T03:00:50;14.65;96.14
13796;SHT30;40911;51.552;9.874;2022-10-16T03:03:12;14.67;95.96
13796;SHT30;40911;51.552;9.874;2022-10-16T03:05:35;14.63;96.03
13796;SHT30;40911;51.552;9.874;2022-10-16T03:07:57;14.56;96.50
13796;SHT30;40911;51.552;9.874;2022-10-16T03:10:35;14.61;96.26
13796;SHT30;40911;51.552;9.874;2022-10-16T03:13:06;14.63;96.19
13796;SHT30;40911;51.552;9.874;2022-10-16T03:15:28;14.60;96.25
13796;SHT30;40911;51.552;9.874;2022-10-16T03:17:51;14.64;96.17
13796;SHT30;40911;51.552;9.874;2022-10-16T03:20:17;14.63;96.28
13796;SHT30;40911;51.552;9.874;2022-10-16T03:22:40;14.65;96.27
13796;SHT30;40911;51.552;9.874;2022-10-16T03:25:02;14.65;96.32
13796;SHT30;40911;51.552;9.874;2022-10-16T03:27:24;14.65;96.33
13796;SHT30;40911;51.552;9.874;2022-10-16T03:29:46;14.65;96.43
13796;SHT30;40911;51.552;9.874;2022-10-16T03:32:07;14.68;96.30
13796;SHT30;40911;51.552;9.874;2022-10-16T03:34:29;14.60;96.45
13796;SHT30;40911;51.552;9.874;2022-10-16T03:36:51;14.60;96.49
13796;SHT30;40911;51.552;9.874;2022-10-16T03:39:14;14.63;96.45
13796;SHT30;40911;51.552;9.874;2022-10-16T03:41:36;14.60;96.50
13796;SHT30;40911;51.552;9.874;2022-10-16T03:43:57;14.70;96.36
13796;SHT30;40911;51.552;9.874;2022-10-16T03:46:19;14.70;96.25
13796;SHT30;40911;51.552;9.874;2022-10-16T03:48:41;14.71;96.13
13796;SHT30;40911;51.552;9.874;2022-10-16T03:51:03;14.80;95.68
13796;SHT30;40911;51.552;9.874;2022-10-16T03:53:24;14.80;95.63
13796;SHT30;40911;51.552;9.874;2022-10-16T03:55:48;14.85;95.43
13796;SHT30;40911;51.552;9.874;2022-10-16T03:58:10;14.73;95.60
13796;SHT30;40911;51.552;9.874;2022-10-16T04:00:31;14.73;95.46
13796;SHT30;40911;51.552;9.874;2022-10-16T04:02:53;14.77;95.24
13796;SHT30;40911;51.552;9.874;2022-10-16T04:05:14;14.71;95.35
13796;SHT30;40911;51.552;9.874;2022-10-16T04:07:36;14.61;95.49
13796;SHT30;40911;51.552;9.874;2022-10-16T04:09:58;14.57;95.53
13796;SHT30;40911;51.552;9.874;2022-10-16T04:12:22;14.64;95.12
13796;SHT30;40911;51.552;9.874;2022-10-16T04:14:44;14.61;95.16
13796;SHT30;40911;51.552;9.874;2022-10-16T04:17:06;14.78;94.80
13796;SHT30;40911;51.552;9.874;2022-10-16T04:19:32;14.78;94.71
13796;SHT30;40911;51.552;9.874;2022-10-16T04:22:00;14.71;95.00
13796;SHT30;40911;51.552;9.874;2022-10-16T04:24:28;14.77;94.86
13796;SHT30;40911;51.552;9.874;2022-10-16T04:26:54;14.67;95.09
13796;SHT30;40911;51.552;9.874;2022-10-16T04:29:37;14.70;95.01
13796;SHT30;40911;51.552;9.874;2022-10-16T04:31:59;14.73;94.92
13796;SHT30;40911;51.552;9.874;2022-10-16T04:34:20;14.70;95.00
13796;SHT30;40911;51.552;9.874;2022-10-16T04:36:42;14.64;95.13
13796;SHT30;40911;51.552;9.874;2022-10-16T04:39:04;14.59;95.25
13796;SHT30;40911;51.552;9.874;2022-10-16T04:41:26;14.52;95.32
13796;SHT30;40911;51.552;9.874;2022-10-16T04:43:47;14.67;94.94
13796;SHT30;40911;51.552;9.874;2022-10-16T04:46:10;14.53;95.05
13796;SHT30;40911;51.552;9.874;2022-10-16T04:48:32;14.44;95.41
13796;SHT30;40911;51.552;9.874;2022-10-16T04:50:54;14.43;95.42
13796;SHT30;40911;51.552;9.874;2022-10-16T04:53:18;14.46;95.49
13796;SHT30;40911;51.552;9.874;2022-10-16T04:55:48;14.41;95.48
13796;SHT30;40911;51.552;9.874;2022-10-16T04:58:20;14.43;95.53
13796;SHT30;40911;51.552;9.874;2022-10-16T05:00:42;14.43;95.62
13796;SHT30;40911;51.552;9.874;2022-10-16T05:03:21;14.43;95.48
13796;SHT30;40911;51.552;9.874;2022-10-16T05:05:43;14.43;95.65
13796;SHT30;40911;51.552;9.874;2022-10-16T05:08:05;14.43;95.55
13796;SHT30;40911;51.552;9.874;2022-10-16T05:10:27;14.41;95.49
13796;SHT30;40911;51.552;9.874;2022-10-16T05:12:49;14.43;95.44
13796;SHT30;40911;51.552;9.874;2022-10-16T05:15:11;14.39;95.45
13796;SHT30;40911;51.552;9.874;2022-10-16T05:17:38;14.40;95.36
13796;SHT30;40911;51.552;9.874;2022-10-16T05:20:07;14.37;95.44
13796;SHT30;40911;51.552;9.874;2022-10-16T05:22:29;14.36;95.44
13796;SHT30;40911;51.552;9.874;2022-10-16T05:24:50;14.36;95.41
13796;SHT30;40911;51.552;9.874;2022-10-16T05:27:12;14.34;95.37
13796;SHT30;40911;51.552;9.874;2022-10-16T05:29:40;14.32;95.46
13796;SHT30;40911;51.552;9.874;2022-10-16T05:32:08;14.32;95.44
13796;SHT30;40911;51.552;9.874;2022-10-16T05:34:30;14.29;95.42
13796;SHT30;40911;51.552;9.874;2022-10-16T05:36:53;14.23;95.49
13796;SHT30;40911;51.552;9.874;2022-10-16T05:39:20;14.16;95.70
13796;SHT30;40911;51.552;9.874;2022-10-16T05:41:41;14.18;95.75
13796;SHT30;40911;51.552;9.874;2022-10-16T05:44:04;14.12;95.64
13796;SHT30;40911;51.552;9.874;2022-10-16T05:46:26;14.15;95.82
13796;SHT30;40911;51.552;9.874;2022-10-16T05:48:48;14.10;95.75
13796;SHT30;40911;51.552;9.874;2022-10-16T05:51:11;14.15;95.68
13796;SHT30;40911;51.552;9.874;2022-10-16T05:53:35;14.12;95.75
13796;SHT30;40911;51.552;9.874;2022-10-16T05:55:58;14.09;95.80
13796;SHT30;40911;51.552;9.874;2022-10-16T05:58:20;14.15;95.71
13796;SHT30;40911;51.552;9.874;2022-10-16T06:00:43;14.12;95.78
13796;SHT30;40911;51.552;9.874;2022-10-16T06:03:12;14.08;95.84
13796;SHT30;40911;51.552;9.874;2022-10-16T06:05:39;14.08;96.02
13796;SHT30;40911;51.552;9.874;2022-10-16T06:08:04;14.12;95.84
13796;SHT30;40911;51.552;9.874;2022-10-16T06:10:29;14.25;95.51
13796;SHT30;40911;51.552;9.874;2022-10-16T06:12:51;14.19;95.52
13796;SHT30;40911;51.552;9.874;2022-10-16T06:15:13;14.18;95.60
13796;SHT30;40911;51.552;9.874;2022-10-16T06:17:34;14.25;95.36
13796;SHT30;40911;51.552;9.874;2022-10-16T06:19:56;14.25;95.49
13796;SHT30;40911;51.552;9.874;2022-10-16T06:22:18;14.23;95.47
13796;SHT30;40911;51.552;9.874;2022-10-16T06:24:40;14.27;95.38
13796;SHT30;40911;51.552;9.874;2022-10-16T06:27:04;14.32;95.38
13796;SHT30;40911;51.552;9.874;2022-10-16T06:29:35;14.37;95.34
13796;SHT30;40911;51.552;9.874;2022-10-16T06:31:57;14.40;95.27
13796;SHT30;40911;51.552;9.874;2022-10-16T06:34:21;14.43;95.03
13796;SHT30;40911;51.552;9.874;2022-10-16T06:37:00;14.56;94.90
13796;SHT30;40911;51.552;9.874;2022-10-16T06:39:28;14.68;94.59
13796;SHT30;40911;51.552;9.874;2022-10-16T06:42:11;14.75;94.43
13796;SHT30;40911;51.552;9.874;2022-10-16T06:44:40;14.77;94.58
13796;SHT30;40911;51.552;9.874;2022-10-16T06:47:03;14.80;94.33
13796;SHT30;40911;51.552;9.874;2022-10-16T06:49:27;14.83;94.30
13796;SHT30;40911;51.552;9.874;2022-10-16T06:51:49;14.84;94.12
13796;SHT30;40911;51.552;9.874;2022-10-16T06:54:10;14.92;93.72
13796;SHT30;40911;51.552;9.874;2022-10-16T06:56:33;14.91;93.91
13796;SHT30;40911;51.552;9.874;2022-10-16T06:58:58;14.95;93.38
13796;SHT30;40911;51.552;9.874;2022-10-16T07:01:23;15.01;92.87
13796;SHT30;40911;51.552;9.874;2022-10-16T07:03:46;15.12;92.28
13796;SHT30;40911;51.552;9.874;2022-10-16T07:06:10;15.40;91.05
13796;SHT30;40911;51.552;9.874;2022-10-16T07:08:35;15.29;91.24
13796;SHT30;40911;51.552;9.874;2022-10-16T07:10:59;15.15;92.17
13796;SHT30;40911;51.552;9.874;2022-10-16T07:13:22;15.12;92.17
13796;SHT30;40911;51.552;9.874;2022-10-16T07:15:45;15.16;91.85
13796;SHT30;40911;51.552;9.874;2022-10-16T07:18:07;15.19;91.82
13796;SHT30;40911;51.552;9.874;2022-10-16T07:20:29;15.19;91.62
13796;SHT30;40911;51.552;9.874;2022-10-16T07:22:53;15.20;91.82
13796;SHT30;40911;51.552;9.874;2022-10-16T07:25:14;15.22;91.72
13796;SHT30;40911;51.552;9.874;2022-10-16T07:27:36;15.32;91.77
13796;SHT30;40911;51.552;9.874;2022-10-16T07:29:58;15.28;91.09
13796;SHT30;40911;51.552;9.874;2022-10-16T07:32:21;15.28;91.31
13796;SHT30;40911;51.552;9.874;2022-10-16T07:34:44;15.22;91.26
13796;SHT30;40911;51.552;9.874;2022-10-16T07:37:06;15.19;91.29
13796;SHT30;40911;51.552;9.874;2022-10-16T07:39:28;15.15;91.45
13796;SHT30;40911;51.552;9.874;2022-10-16T07:41:52;15.13;91.84
13796;SHT30;40911;51.552;9.874;2022-10-16T07:44:15;15.18;91.04
13796;SHT30;40911;51.552;9.874;2022-10-16T07:46:37;15.16;90.92
13796;SHT30;40911;51.552;9.874;2022-10-16T07:49:00;15.18;90.77
13796;SHT30;40911;51.552;9.874;2022-10-16T07:51:23;15.19;90.75
13796;SHT30;40911;51.552;9.874;2022-10-16T07:53:45;15.22;89.92
13796;SHT30;40911;51.552;9.874;2022-10-16T07:56:08;15.22;89.88
13796;SHT30;40911;51.552;9.874;2022-10-16T07:58:30;15.31;89.54
13796;SHT30;40911;51.552;9.874;2022-10-16T08:00:52;15.31;88.78
13796;SHT30;40911;51.552;9.874;2022-10-16T08:03:14;15.32;88.63
13796;SHT30;40911;51.552;9.874;2022-10-16T08:05:37;15.49;88.35
13796;SHT30;40911;51.552;9.874;2022-10-16T08:07:59;15.59;88.03
13796;SHT30;40911;51.552;9.874;2022-10-16T08:10:22;15.74;87.90
13796;SHT30;40911;51.552;9.874;2022-10-16T08:12:48;15.78;87.06
13796;SHT30;40911;51.552;9.874;2022-10-16T08:15:10;15.88;86.82
13796;SHT30;40911;51.552;9.874;2022-10-16T08:17:32;16.02;86.32
13796;SHT30;40911;51.552;9.874;2022-10-16T08:19:54;16.14;86.68
13796;SHT30;40911;51.552;9.874;2022-10-16T08:22:17;16.21;86.27
13796;SHT30;40911;51.552;9.874;2022-10-16T08:24:39;16.18;85.99
13796;SHT30;40911;51.552;9.874;2022-10-16T08:27:01;16.01;85.88
13796;SHT30;40911;51.552;9.874;2022-10-16T08:29:22;15.90;85.73
13796;SHT30;40911;51.552;9.874;2022-10-16T08:31:44;15.95;86.61
13796;SHT30;40911;51.552;9.874;2022-10-16T08:34:07;15.97;86.90
13796;SHT30;40911;51.552;9.874;2022-10-16T08:36:29;15.87;85.84
13796;SHT30;40911;51.552;9.874;2022-10-16T08:38:52;15.91;85.86
13796;SHT30;40911;51.552;9.874;2022-10-16T08:41:23;15.94;86.34
13796;SHT30;40911;51.552;9.874;2022-10-16T08:44:13;15.92;85.94
13796;SHT30;40911;51.552;9.874;2022-10-16T08:46:44;15.95;86.52
13796;SHT30;40911;51.552;9.874;2022-10-16T08:49:11;15.98;86.52
13796;SHT30;40911;51.552;9.874;2022-10-16T08:51:36;16.08;85.94
13796;SHT30;40911;51.552;9.874;2022-10-16T08:54:01;15.99;85.87
13796;SHT30;40911;51.552;9.874;2022-10-16T08:56:25;16.05;85.93
13796;SHT30;40911;51.552;9.874;2022-10-16T08:58:47;16.07;85.76
13796;SHT30;40911;51.552;9.874;2022-10-16T09:01:20;16.01;85.38
13796;SHT30;40911;51.552;9.874;2022-10-16T09:06:50;16.18;84.67
13796;SHT30;40911;51.552;9.874;2022-10-16T09:09:40;16.32;84.48
13796;SHT30;40911;51.552;9.874;2022-10-16T09:12:08;16.40;84.68
13796;SHT30;40911;51.552;9.874;2022-10-16T09:14:44;16.39;84.90
13796;SHT30;40911;51.552;9.874;2022-10-16T09:17:24;16.32;84.74
13796;SHT30;40911;51.552;9.874;2022-10-16T09:19:51;16.29;84.71
13796;SHT30;40911;51.552;9.874;2022-10-16T09:22:16;16.47;84.37
13796;SHT30;40911;51.552;9.874;2022-10-16T09:24:49;16.63;84.21
13796;SHT30;40911;51.552;9.874;2022-10-16T09:27:12;16.53;83.50
13796;SHT30;40911;51.552;9.874;2022-10-16T09:29:39;16.91;83.93
13796;SHT30;40911;51.552;9.874;2022-10-16T09:32:11;16.77;83.23
13796;SHT30;40911;51.552;9.874;2022-10-16T09:34:36;17.05;84.17
13796;SHT30;40911;51.552;9.874;2022-10-16T09:36:59;17.01;83.97
13796;SHT30;40911;51.552;9.874;2022-10-16T09:39:20;16.88;84.33
13796;SHT30;40911;51.552;9.874;2022-10-16T09:41:45;16.70;83.76
13796;SHT30;40911;51.552;9.874;2022-10-16T09:44:19;16.63;83.83
13796;SHT30;40911;51.552;9.874;2022-10-16T09:46:44;16.64;84.12
13796;SHT30;40911;51.552;9.874;2022-10-16T09:49:20;16.77;83.93
13796;SHT30;40911;51.552;9.874;2022-10-16T09:51:42;16.76;83.55
13796;SHT30;40911;51.552;9.874;2022-10-16T09:54:13;17.29;82.54
13796;SHT30;40911;51.552;9.874;2022-10-16T09:56:37;17.53;82.37
13796;SHT30;40911;51.552;9.874;2022-10-16T09:59:03;18.00;81.23
13796;SHT30;40911;51.552;9.874;2022-10-16T10:01:35;17.53;81.36
13796;SHT30;40911;51.552;9.874;2022-10-16T10:03:58;17.96;80.47
13796;SHT30;40911;51.552;9.874;2022-10-16T10:06:23;17.81;80.81
13796;SHT30;40911;51.552;9.874;2022-10-16T10:08:56;17.98;80.79
13796;SHT30;40911;51.552;9.874;2022-10-16T10:11:39;17.79;80.17
13796;SHT30;40911;51.552;9.874;2022-10-16T10:14:05;17.97;80.16
13796;SHT30;40911;51.552;9.874;2022-10-16T10:16:27;18.01;80.23
13796;SHT30;40911;51.552;9.874;2022-10-16T10:18:57;18.22;78.62
13796;SHT30;40911;51.552;9.874;2022-10-16T10:21:19;18.08;79.04
13796;SHT30;40911;51.552;9.874;2022-10-16T10:23:41;17.93;79.70
13796;SHT30;40911;51.552;9.874;2022-10-16T10:26:08;17.69;80.55
13796;SHT30;40911;51.552;9.874;2022-10-16T10:28:54;17.56;80.87
13796;SHT30;40911;51.552;9.874;2022-10-16T10:31:21;17.97;79.10
13796;SHT30;40911;51.552;9.874;2022-10-16T10:33:52;18.26;78.17
13796;SHT30;40911;51.552;9.874;2022-10-16T10:36:25;18.29;77.90
13796;SHT30;40911;51.552;9.874;2022-10-16T10:38:53;18.39;78.25
13796;SHT30;40911;51.552;9.874;2022-10-16T10:45:15;18.80;76.88
13796;SHT30;40911;51.552;9.874;2022-10-16T10:47:48;18.81;76.68
13796;SHT30;40911;51.552;9.874;2022-10-16T10:50:21;18.67;75.34
13796;SHT30;40911;51.552;9.874;2022-10-16T10:52:53;18.81;75.46
13796;SHT30;40911;51.552;9.874;2022-10-16T10:55:24;19.05;74.15
13796;SHT30;40911;51.552;9.874;2022-10-16T10:58:10;18.94;73.09
13796;SHT30;40911;51.552;9.874;2022-10-16T11:00:44;18.39;73.42
13796;SHT30;40911;51.552;9.874;2022-10-16T11:03:27;18.49;74.97
13796;SHT30;40911;51.552;9.874;2022-10-16T11:05:56;18.77;75.20
13796;SHT30;40911;51.552;9.874;2022-10-16T11:08:27;18.79;75.81
13796;SHT30;40911;51.552;9.874;2022-10-16T11:10:54;18.60;77.54
13796;SHT30;40911;51.552;9.874;2022-10-16T11:13:27;18.42;77.91
13796;SHT30;40911;51.552;9.874;2022-10-16T11:15:54;18.15;74.64
13796;SHT30;40911;51.552;9.874;2022-10-16T11:18:24;18.28;73.58
13796;SHT30;40911;51.552;9.874;2022-10-16T11:20:56;18.67;74.58
13796;SHT30;40911;51.552;9.874;2022-10-16T11:23:25;19.30;73.20
13796;SHT30;40911;51.552;9.874;2022-10-16T11:26:18;19.23;74.09
13796;SHT30;40911;51.552;9.874;2022-10-16T11:28:51;19.28;72.88
13796;SHT30;40911;51.552;9.874;2022-10-16T11:31:22;19.59;73.20
13796;SHT30;40911;51.552;9.874;2022-10-16T11:33:51;19.93;72.51
13796;SHT30;40911;51.552;9.874;2022-10-16T11:39:21;19.67;71.40
13796;SHT30;40911;51.552;9.874;2022-10-16T11:41:45;19.52;71.33
13796;SHT30;40911;51.552;9.874;2022-10-16T11:44:38;19.05;72.08
13796;SHT30;40911;51.552;9.874;2022-10-16T11:47:25;18.63;72.89
13796;SHT30;40911;51.552;9.874;2022-10-16T11:50:04;18.56;73.87
13796;SHT30;40911;51.552;9.874;2022-10-16T11:52:31;18.62;74.90
13796;SHT30;40911;51.552;9.874;2022-10-16T11:55:00;18.51;74.60
13796;SHT30;40911;51.552;9.874;2022-10-16T11:57:31;18.48;75.13
13796;SHT30;40911;51.552;9.874;2022-10-16T12:00:00;18.53;75.27
13796;SHT30;40911;51.552;9.874;2022-10-16T12:03:03;18.46;75.32
13796;SHT30;40911;51.552;9.874;2022-10-16T12:05:35;18.48;74.75
13796;SHT30;40911;51.552;9.874;2022-10-16T12:08:08;18.84;74.95
13796;SHT30;40911;51.552;9.874;2022-10-16T12:10:31;19.15;71.99
13796;SHT30;40911;51.552;9.874;2022-10-16T12:12:57;18.84;72.57
13796;SHT30;40911;51.552;9.874;2022-10-16T12:15:22;19.11;72.55
13796;SHT30;40911;51.552;9.874;2022-10-16T12:18:02;19.15;72.20
13796;SHT30;40911;51.552;9.874;2022-10-16T12:20:59;19.08;69.60
13796;SHT30;40911;51.552;9.874;2022-10-16T12:23:31;19.04;70.81
13796;SHT30;40911;51.552;9.874;2022-10-16T12:26:02;19.07;70.68
13796;SHT30;40911;51.552;9.874;2022-10-16T12:28:41;18.94;70.59
13796;SHT30;40911;51.552;9.874;2022-10-16T12:31:42;18.83;71.00
13796;SHT30;40911;51.552;9.874;2022-10-16T12:34:26;18.90;71.17
13796;SHT30;40911;51.552;9.874;2022-10-16T12:46:44;19.39;71.11
13796;SHT30;40911;51.552;9.874;2022-10-16T12:49:28;19.14;70.39
13796;SHT30;40911;51.552;9.874;2022-10-16T12:55:56;19.08;70.41
13796;SHT30;40911;51.552;9.874;2022-10-16T13:01:09;19.27;68.97
13796;SHT30;40911;51.552;9.874;2022-10-16T13:04:04;19.53;68.01
13796;SHT30;40911;51.552;9.874;2022-10-16T13:06:36;19.62;68.06
13796;SHT30;40911;51.552;9.874;2022-10-16T13:09:08;19.70;68.86
13796;SHT30;40911;51.552;9.874;2022-10-16T13:11:45;19.58;67.89
13796;SHT30;40911;51.552;9.874;2022-10-16T13:14:29;19.45;68.93
13796;SHT30;40911;51.552;9.874;2022-10-16T13:17:00;19.38;69.43
13796;SHT30;40911;51.552;9.874;2022-10-16T13:19:30;19.23;69.41
13796;SHT30;40911;51.552;9.874;2022-10-16T13:22:00;19.24;69.74
13796;SHT30;40911;51.552;9.874;2022-10-16T13:24:43;19.30;70.40
13796;SHT30;40911;51.552;9.874;2022-10-16T13:27:15;19.12;68.90
13796;SHT30;40911;51.552;9.874;2022-10-16T13:29:38;19.20;69.60
13796;SHT30;40911;51.552;9.874;2022-10-16T13:32:07;19.38;68.71
13796;SHT30;40911;51.552;9.874;2022-10-16T13:34:31;19.55;68.76
13796;SHT30;40911;51.552;9.874;2022-10-16T13:36:53;19.49;67.98
13796;SHT30;40911;51.552;9.874;2022-10-16T13:39:21;19.66;69.42
13796;SHT30;40911;51.552;9.874;2022-10-16T13:41:44;19.67;68.84
13796;SHT30;40911;51.552;9.874;2022-10-16T13:44:13;19.62;69.13
13796;SHT30;40911;51.552;9.874;2022-10-16T13:46:35;19.46;68.95
13796;SHT30;40911;51.552;9.874;2022-10-16T13:48:58;19.41;67.86
13796;SHT30;40911;51.552;9.874;2022-10-16T13:51:21;19.46;68.07
13796;SHT30;40911;51.552;9.874;2022-10-16T13:53:44;19.52;68.41
13796;SHT30;40911;51.552;9.874;2022-10-16T13:56:09;19.24;68.39
13796;SHT30;40911;51.552;9.874;2022-10-16T13:58:32;19.08;70.14
13796;SHT30;40911;51.552;9.874;2022-10-16T14:00:56;18.97;68.85
13796;SHT30;40911;51.552;9.874;2022-10-16T14:03:19;18.86;69.90
13796;SHT30;40911;51.552;9.874;2022-10-16T14:05:44;18.91;69.65
13796;SHT30;40911;51.552;9.874;2022-10-16T14:08:11;18.88;70.81
13796;SHT30;40911;51.552;9.874;2022-10-16T14:10:34;18.98;70.10
13796;SHT30;40911;51.552;9.874;2022-10-16T14:12:57;18.90;71.00
13796;SHT30;40911;51.552;9.874;2022-10-16T14:15:19;18.96;69.49
13796;SHT30;40911;51.552;9.874;2022-10-16T14:17:43;19.04;69.97
13796;SHT30;40911;51.552;9.874;2022-10-16T14:20:14;19.11;70.35
13796;SHT30;40911;51.552;9.874;2022-10-16T14:22:38;19.07;69.99
13796;SHT30;40911;51.552;9.874;2022-10-16T14:25:20;18.98;70.50
13796;SHT30;40911;51.552;9.874;2022-10-16T14:27:57;19.01;69.97
13796;SHT30;40911;51.552;9.874;2022-10-16T14:30:21;18.97;70.39
13796;SHT30;40911;51.552;9.874;2022-10-16T14:32:56;18.87;70.11
13796;SHT30;40911;51.552;9.874;2022-10-16T14:35:56;18.90;70.61
13796;SHT30;40911;51.552;9.874;2022-10-16T14:38:30;18.86;71.28
13796;SHT30;40911;51.552;9.874;2022-10-16T14:44:06;18.83;70.60
13796;SHT30;40911;51.552;9.874;2022-10-16T14:46:33;18.90;70.45
13796;SHT30;40911;51.552;9.874;2022-10-16T14:49:15;18.94;70.33
13796;SHT30;40911;51.552;9.874;2022-10-16T14:51:42;19.01;69.77
13796;SHT30;40911;51.552;9.874;2022-10-16T14:54:05;19.14;69.52
13796;SHT30;40911;51.552;9.874;2022-10-16T14:56:29;19.18;70.76
13796;SHT30;40911;51.552;9.874;2022-10-16T14:58:52;19.20;71.90
13796;SHT30;40911;51.552;9.874;2022-10-16T15:01:15;19.04;69.93
13796;SHT30;40911;51.552;9.874;2022-10-16T15:03:37;19.12;70.14
13796;SHT30;40911;51.552;9.874;2022-10-16T15:06:08;19.28;69.78
13796;SHT30;40911;51.552;9.874;2022-10-16T15:08:31;19.27;70.90
13796;SHT30;40911;51.552;9.874;2022-10-16T15:10:53;19.48;71.48
13796;SHT30;40911;51.552;9.874;2022-10-16T15:13:14;19.36;69.77
13796;SHT30;40911;51.552;9.874;2022-10-16T15:15:37;19.55;71.37
13796;SHT30;40911;51.552;9.874;2022-10-16T15:18:01;19.18;71.94
13796;SHT30;40911;51.552;9.874;2022-10-16T15:20:24;18.88;73.48
13796;SHT30;40911;51.552;9.874;2022-10-16T15:22:46;18.73;74.79
13796;SHT30;40911;51.552;9.874;2022-10-16T15:25:22;18.56;75.03
13796;SHT30;40911;51.552;9.874;2022-10-16T15:27:47;18.44;75.62
13796;SHT30;40911;51.552;9.874;2022-10-16T15:30:10;18.48;75.32
13796;SHT30;40911;51.552;9.874;2022-10-16T15:32:32;18.44;75.19
13796;SHT30;40911;51.552;9.874;2022-10-16T15:34:55;18.35;75.87
13796;SHT30;40911;51.552;9.874;2022-10-16T15:37:17;18.44;75.46
13796;SHT30;40911;51.552;9.874;2022-10-16T15:39:39;18.32;76.53
13796;SHT30;40911;51.552;9.874;2022-10-16T15:42:01;18.32;76.33
13796;SHT30;40911;51.552;9.874;2022-10-16T15:44:23;18.32;76.13
13796;SHT30;40911;51.552;9.874;2022-10-16T15:46:46;18.41;75.81
13796;SHT30;40911;51.552;9.874;2022-10-16T15:49:08;18.33;76.29
13796;SHT30;40911;51.552;9.874;2022-10-16T15:51:32;18.11;78.18
13796;SHT30;40911;51.552;9.874;2022-10-16T15:53:55;18.12;78.07
13796;SHT30;40911;51.552;9.874;2022-10-16T15:56:17;18.15;77.79
13796;SHT30;40911;51.552;9.874;2022-10-16T15:58:39;18.10;78.53
13796;SHT30;40911;51.552;9.874;2022-10-16T16:01:02;18.02;78.36
13796;SHT30;40911;51.552;9.874;2022-10-16T16:03:24;18.05;78.60
13796;SHT30;40911;51.552;9.874;2022-10-16T16:05:47;17.94;78.66